Airport ID:KO05
Update Time (UTC):26/10/2021 09:38
Wind Speed (Knots):5
Wind Direction (Magnetic):180
Temperature (°C):3
Dew Point (°C):2
Humidity (%):90
Altimeter (inHg):30.02
Density Altitude (Feet):
Visibility:10+
Clouds (Hundreds of feet):###
Present Weather:
METAR:METAR KO05 260935Z AUTO 20004KT 10SM 03/02 A3002 RMK A01

The data displayed is for advisory purposes only and is not to be used for flight planning or operations.